sensor_id;sensor_type;location;lat;lon;timestamp;P1;durP1;ratioP1;P2;durP2;ratioP2
5869;SDS011;2961;47.702;9.410;2023-04-24T00:00:14;1.30;;;1.30;;
5869;SDS011;2961;47.702;9.410;2023-04-24T00:02:42;2.30;;;1.80;;
5869;SDS011;2961;47.702;9.410;2023-04-24T00:05:12;1.37;;;1.30;;
5869;SDS011;2961;47.702;9.410;2023-04-24T00:07:39;1.40;;;1.30;;
5869;SDS011;2961;47.702;9.410;2023-04-24T00:10:08;2.73;;;1.77;;
5869;SDS011;2961;47.702;9.410;2023-04-24T00:12:36;1.30;;;1.20;;
5869;SDS011;2961;47.702;9.410;2023-04-24T00:15:03;1.80;;;1.70;;
5869;SDS011;2961;47.702;9.410;2023-04-24T00:17:31;2.87;;;1.40;;
5869;SDS011;2961;47.702;9.410;2023-04-24T00:19:58;1.83;;;1.73;;
5869;SDS011;2961;47.702;9.410;2023-04-24T00:22:25;1.33;;;1.30;;
5869;SDS011;2961;47.702;9.410;2023-04-24T00:24:52;1.83;;;1.70;;
5869;SDS011;2961;47.702;9.410;2023-04-24T00:27:21;5.13;;;1.90;;
5869;SDS011;2961;47.702;9.410;2023-04-24T00:29:48;1.30;;;1.20;;
5869;SDS011;2961;47.702;9.410;2023-04-24T00:32:15;1.40;;;1.30;;
5869;SDS011;2961;47.702;9.410;2023-04-24T00:34:42;3.37;;;1.30;;
5869;SDS011;2961;47.702;9.410;2023-04-24T00:37:09;1.60;;;1.23;;
5869;SDS011;2961;47.702;9.410;2023-04-24T00:39:36;1.03;;;1.03;;
5869;SDS011;2961;47.702;9.410;2023-04-24T00:42:03;1.77;;;1.77;;
5869;SDS011;2961;47.702;9.410;2023-04-24T00:44:32;1.00;;;1.00;;
5869;SDS011;2961;47.702;9.410;2023-04-24T00:46:59;1.80;;;1.20;;
5869;SDS011;2961;47.702;9.410;2023-04-24T00:49:27;4.87;;;1.40;;
5869;SDS011;2961;47.702;9.410;2023-04-24T00:51:54;1.17;;;1.17;;
5869;SDS011;2961;47.702;9.410;2023-04-24T00:54:21;1.10;;;1.10;;
5869;SDS011;2961;47.702;9.410;2023-04-24T00:56:48;1.23;;;1.20;;
5869;SDS011;2961;47.702;9.410;2023-04-24T00:59:16;5.20;;;1.60;;
5869;SDS011;2961;47.702;9.410;2023-04-24T01:01:45;4.80;;;1.30;;
5869;SDS011;2961;47.702;9.410;2023-04-24T01:04:12;1.90;;;1.73;;
5869;SDS011;2961;47.702;9.410;2023-04-24T01:06:40;5.10;;;1.17;;
5869;SDS011;2961;47.702;9.410;2023-04-24T01:09:10;1.20;;;1.20;;
5869;SDS011;2961;47.702;9.410;2023-04-24T01:11:38;3.17;;;1.40;;
5869;SDS011;2961;47.702;9.410;2023-04-24T01:14:07;1.90;;;1.50;;
5869;SDS011;2961;47.702;9.410;2023-04-24T01:16:34;1.63;;;1.33;;
5869;SDS011;2961;47.702;9.410;2023-04-24T01:19:04;4.20;;;1.73;;
5869;SDS011;2961;47.702;9.410;2023-04-24T01:21:32;1.40;;;1.40;;
5869;SDS011;2961;47.702;9.410;2023-04-24T01:24:04;1.40;;;1.40;;
5869;SDS011;2961;47.702;9.410;2023-04-24T01:26:32;2.73;;;1.77;;
5869;SDS011;2961;47.702;9.410;2023-04-24T01:28:59;1.90;;;1.70;;
5869;SDS011;2961;47.702;9.410;2023-04-24T01:31:26;1.33;;;1.33;;
5869;SDS011;2961;47.702;9.410;2023-04-24T01:33:53;1.47;;;1.47;;
5869;SDS011;2961;47.702;9.410;2023-04-24T01:36:20;1.43;;;1.20;;
5869;SDS011;2961;47.702;9.410;2023-04-24T01:38:48;1.60;;;1.50;;
5869;SDS011;2961;47.702;9.410;2023-04-24T01:41:16;2.10;;;1.30;;
5869;SDS011;2961;47.702;9.410;2023-04-24T01:43:43;5.03;;;1.50;;
5869;SDS011;2961;47.702;9.410;2023-04-24T01:46:10;1.50;;;1.40;;
5869;SDS011;2961;47.702;9.410;2023-04-24T01:48:37;3.20;;;1.03;;
5869;SDS011;2961;47.702;9.410;2023-04-24T01:51:04;2.40;;;1.20;;
5869;SDS011;2961;47.702;9.410;2023-04-24T01:53:31;1.47;;;1.40;;
5869;SDS011;2961;47.702;9.410;2023-04-24T01:55:58;2.00;;;1.90;;
5869;SDS011;2961;47.702;9.410;2023-04-24T01:58:26;1.00;;;1.00;;
5869;SDS011;2961;47.702;9.410;2023-04-24T02:00:55;2.00;;;1.30;;
5869;SDS011;2961;47.702;9.410;2023-04-24T02:03:22;1.43;;;1.30;;
5869;SDS011;2961;47.702;9.410;2023-04-24T02:05:49;1.97;;;1.10;;
5869;SDS011;2961;47.702;9.410;2023-04-24T02:08:16;1.50;;;1.30;;
5869;SDS011;2961;47.702;9.410;2023-04-24T02:10:43;3.13;;;1.53;;
5869;SDS011;2961;47.702;9.410;2023-04-24T02:13:10;1.27;;;1.00;;
5869;SDS011;2961;47.702;9.410;2023-04-24T02:15:38;2.20;;;1.20;;
5869;SDS011;2961;47.702;9.410;2023-04-24T02:18:05;1.70;;;1.50;;
5869;SDS011;2961;47.702;9.410;2023-04-24T02:20:32;1.80;;;0.80;;
5869;SDS011;2961;47.702;9.410;2023-04-24T02:23:00;1.00;;;1.00;;
5869;SDS011;2961;47.702;9.410;2023-04-24T02:25:27;1.07;;;1.07;;
5869;SDS011;2961;47.702;9.410;2023-04-24T02:27:54;1.77;;;1.00;;
5869;SDS011;2961;47.702;9.410;2023-04-24T02:30:20;0.80;;;0.80;;
5869;SDS011;2961;47.702;9.410;2023-04-24T02:32:49;1.23;;;1.13;;
5869;SDS011;2961;47.702;9.410;2023-04-24T02:35:16;1.00;;;1.00;;
5869;SDS011;2961;47.702;9.410;2023-04-24T02:37:43;0.87;;;0.87;;
5869;SDS011;2961;47.702;9.410;2023-04-24T02:40:09;2.20;;;1.00;;
5869;SDS011;2961;47.702;9.410;2023-04-24T02:42:36;1.63;;;0.90;;
5869;SDS011;2961;47.702;9.410;2023-04-24T02:45:04;0.90;;;0.90;;
5869;SDS011;2961;47.702;9.410;2023-04-24T02:47:31;0.80;;;0.80;;
5869;SDS011;2961;47.702;9.410;2023-04-24T02:49:59;6.73;;;0.80;;
5869;SDS011;2961;47.702;9.410;2023-04-24T02:52:26;0.90;;;0.90;;
5869;SDS011;2961;47.702;9.410;2023-04-24T02:54:53;1.00;;;0.83;;
5869;SDS011;2961;47.702;9.410;2023-04-24T02:57:19;0.83;;;0.83;;
5869;SDS011;2961;47.702;9.410;2023-04-24T02:59:46;0.70;;;0.70;;
5869;SDS011;2961;47.702;9.410;2023-04-24T03:02:13;3.67;;;0.70;;
5869;SDS011;2961;47.702;9.410;2023-04-24T03:04:40;4.80;;;1.07;;
5869;SDS011;2961;47.702;9.410;2023-04-24T03:07:09;2.50;;;0.60;;
5869;SDS011;2961;47.702;9.410;2023-04-24T03:09:36;6.30;;;0.77;;
5869;SDS011;2961;47.702;9.410;2023-04-24T03:12:02;0.60;;;0.60;;
5869;SDS011;2961;47.702;9.410;2023-04-24T03:14:29;0.60;;;0.60;;
5869;SDS011;2961;47.702;9.410;2023-04-24T03:16:56;0.67;;;0.50;;
5869;SDS011;2961;47.702;9.410;2023-04-24T03:19:23;0.60;;;0.60;;
5869;SDS011;2961;47.702;9.410;2023-04-24T03:21:50;0.60;;;0.60;;
5869;SDS011;2961;47.702;9.410;2023-04-24T03:24:18;0.50;;;0.50;;
5869;SDS011;2961;47.702;9.410;2023-04-24T03:26:45;1.90;;;0.60;;
5869;SDS011;2961;47.702;9.410;2023-04-24T03:29:12;1.23;;;0.50;;
5869;SDS011;2961;47.702;9.410;2023-04-24T03:31:39;1.17;;;0.50;;
5869;SDS011;2961;47.702;9.410;2023-04-24T03:34:05;0.40;;;0.40;;
5869;SDS011;2961;47.702;9.410;2023-04-24T03:36:32;0.60;;;0.60;;
5869;SDS011;2961;47.702;9.410;2023-04-24T03:38:59;0.33;;;0.33;;
5869;SDS011;2961;47.702;9.410;2023-04-24T03:41:27;0.40;;;0.30;;
5869;SDS011;2961;47.702;9.410;2023-04-24T03:43:55;1.63;;;0.33;;
5869;SDS011;2961;47.702;9.410;2023-04-24T03:46:22;0.30;;;0.30;;
5869;SDS011;2961;47.702;9.410;2023-04-24T03:48:49;0.30;;;0.30;;
5869;SDS011;2961;47.702;9.410;2023-04-24T03:51:15;0.70;;;0.40;;
5869;SDS011;2961;47.702;9.410;2023-04-24T03:53:42;0.40;;;0.40;;
5869;SDS011;2961;47.702;9.410;2023-04-24T03:56:09;0.30;;;0.30;;
5869;SDS011;2961;47.702;9.410;2023-04-24T03:58:37;0.30;;;0.30;;
5869;SDS011;2961;47.702;9.410;2023-04-24T04:01:04;0.50;;;0.50;;
5869;SDS011;2961;47.702;9.410;2023-04-24T04:03:31;0.30;;;0.30;;
5869;SDS011;2961;47.702;9.410;2023-04-24T04:05:58;0.40;;;0.40;;
5869;SDS011;2961;47.702;9.410;2023-04-24T04:08:25;0.67;;;0.40;;
5869;SDS011;2961;47.702;9.410;2023-04-24T04:10:52;0.87;;;0.50;;
5869;SDS011;2961;47.702;9.410;2023-04-24T04:13:19;0.80;;;0.30;;
5869;SDS011;2961;47.702;9.410;2023-04-24T04:15:47;1.73;;;0.47;;
5869;SDS011;2961;47.702;9.410;2023-04-24T04:18:14;0.47;;;0.47;;
5869;SDS011;2961;47.702;9.410;2023-04-24T04:20:41;0.40;;;0.40;;
5869;SDS011;2961;47.702;9.410;2023-04-24T04:23:07;0.40;;;0.40;;
5869;SDS011;2961;47.702;9.410;2023-04-24T04:25:34;0.50;;;0.50;;
5869;SDS011;2961;47.702;9.410;2023-04-24T04:28:01;0.30;;;0.30;;
5869;SDS011;2961;47.702;9.410;2023-04-24T04:30:28;0.53;;;0.53;;
5869;SDS011;2961;47.702;9.410;2023-04-24T04:32:58;4.00;;;0.40;;
5869;SDS011;2961;47.702;9.410;2023-04-24T04:35:25;0.40;;;0.40;;
5869;SDS011;2961;47.702;9.410;2023-04-24T04:37:52;0.50;;;0.37;;
5869;SDS011;2961;47.702;9.410;2023-04-24T04:40:19;4.20;;;0.37;;
5869;SDS011;2961;47.702;9.410;2023-04-24T04:42:46;1.50;;;0.50;;
5869;SDS011;2961;47.702;9.410;2023-04-24T04:45:12;0.43;;;0.43;;
5869;SDS011;2961;47.702;9.410;2023-04-24T04:47:41;0.57;;;0.30;;
5869;SDS011;2961;47.702;9.410;2023-04-24T04:50:11;0.30;;;0.30;;
5869;SDS011;2961;47.702;9.410;2023-04-24T04:52:38;1.23;;;0.40;;
5869;SDS011;2961;47.702;9.410;2023-04-24T04:55:06;0.73;;;0.30;;
5869;SDS011;2961;47.702;9.410;2023-04-24T04:57:33;1.33;;;0.47;;
5869;SDS011;2961;47.702;9.410;2023-04-24T05:00:00;0.30;;;0.30;;
5869;SDS011;2961;47.702;9.410;2023-04-24T05:02:27;0.40;;;0.33;;
5869;SDS011;2961;47.702;9.410;2023-04-24T05:04:53;0.30;;;0.30;;
5869;SDS011;2961;47.702;9.410;2023-04-24T05:07:22;1.70;;;0.30;;
5869;SDS011;2961;47.702;9.410;2023-04-24T05:09:48;0.30;;;0.30;;
5869;SDS011;2961;47.702;9.410;2023-04-24T05:12:16;1.47;;;0.30;;
5869;SDS011;2961;47.702;9.410;2023-04-24T05:14:43;1.43;;;0.60;;
5869;SDS011;2961;47.702;9.410;2023-04-24T05:17:10;0.23;;;0.23;;
5869;SDS011;2961;47.702;9.410;2023-04-24T05:19:36;0.60;;;0.50;;
5869;SDS011;2961;47.702;9.410;2023-04-24T05:22:03;0.30;;;0.30;;
5869;SDS011;2961;47.702;9.410;2023-04-24T05:24:33;1.53;;;0.40;;
5869;SDS011;2961;47.702;9.410;2023-04-24T05:27:00;2.70;;;0.60;;
5869;SDS011;2961;47.702;9.410;2023-04-24T05:29:27;0.27;;;0.23;;
5869;SDS011;2961;47.702;9.410;2023-04-24T05:31:55;0.50;;;0.37;;
5869;SDS011;2961;47.702;9.410;2023-04-24T05:34:22;0.70;;;0.30;;
5869;SDS011;2961;47.702;9.410;2023-04-24T05:36:49;0.30;;;0.30;;
5869;SDS011;2961;47.702;9.410;2023-04-24T05:39:16;0.80;;;0.30;;
5869;SDS011;2961;47.702;9.410;2023-04-24T05:41:46;0.20;;;0.20;;
5869;SDS011;2961;47.702;9.410;2023-04-24T05:44:12;0.40;;;0.40;;
5869;SDS011;2961;47.702;9.410;2023-04-24T05:46:39;3.90;;;0.30;;
5869;SDS011;2961;47.702;9.410;2023-04-24T05:49:06;1.80;;;0.40;;
5869;SDS011;2961;47.702;9.410;2023-04-24T05:51:32;0.70;;;0.30;;
5869;SDS011;2961;47.702;9.410;2023-04-24T05:54:00;0.40;;;0.40;;
5869;SDS011;2961;47.702;9.410;2023-04-24T05:56:28;0.30;;;0.20;;
5869;SDS011;2961;47.702;9.410;2023-04-24T05:58:56;0.33;;;0.33;;
5869;SDS011;2961;47.702;9.410;2023-04-24T06:01:23;0.30;;;0.30;;
5869;SDS011;2961;47.702;9.410;2023-04-24T06:03:50;0.30;;;0.30;;
5869;SDS011;2961;47.702;9.410;2023-04-24T06:06:17;1.50;;;0.40;;
5869;SDS011;2961;47.702;9.410;2023-04-24T06:08:45;1.20;;;0.57;;
5869;SDS011;2961;47.702;9.410;2023-04-24T06:11:11;0.43;;;0.30;;
5869;SDS011;2961;47.702;9.410;2023-04-24T06:13:38;1.23;;;0.50;;
5869;SDS011;2961;47.702;9.410;2023-04-24T06:16:06;2.40;;;0.40;;
5869;SDS011;2961;47.702;9.410;2023-04-24T06:18:33;0.70;;;0.50;;
5869;SDS011;2961;47.702;9.410;2023-04-24T06:21:00;0.40;;;0.33;;
5869;SDS011;2961;47.702;9.410;2023-04-24T06:23:27;2.33;;;0.57;;
5869;SDS011;2961;47.702;9.410;2023-04-24T06:25:54;0.40;;;0.40;;
5869;SDS011;2961;47.702;9.410;2023-04-24T06:28:21;2.10;;;0.50;;
5869;SDS011;2961;47.702;9.410;2023-04-24T06:30:47;0.40;;;0.37;;
5869;SDS011;2961;47.702;9.410;2023-04-24T06:33:16;0.70;;;0.60;;
5869;SDS011;2961;47.702;9.410;2023-04-24T06:35:43;0.60;;;0.53;;
5869;SDS011;2961;47.702;9.410;2023-04-24T06:38:10;0.43;;;0.40;;
5869;SDS011;2961;47.702;9.410;2023-04-24T06:40:36;6.27;;;0.70;;
5869;SDS011;2961;47.702;9.410;2023-04-24T06:43:03;1.17;;;0.80;;
5869;SDS011;2961;47.702;9.410;2023-04-24T06:45:31;0.60;;;0.60;;
5869;SDS011;2961;47.702;9.410;2023-04-24T06:47:58;0.40;;;0.40;;
5869;SDS011;2961;47.702;9.410;2023-04-24T06:50:26;0.40;;;0.40;;
5869;SDS011;2961;47.702;9.410;2023-04-24T06:52:52;0.40;;;0.40;;
5869;SDS011;2961;47.702;9.410;2023-04-24T06:55:19;0.40;;;0.40;;
5869;SDS011;2961;47.702;9.410;2023-04-24T06:57:46;3.07;;;1.07;;
5869;SDS011;2961;47.702;9.410;2023-04-24T07:00:13;1.10;;;0.73;;
5869;SDS011;2961;47.702;9.410;2023-04-24T07:02:41;0.60;;;0.60;;
5869;SDS011;2961;47.702;9.410;2023-04-24T07:05:07;0.90;;;0.60;;
5869;SDS011;2961;47.702;9.410;2023-04-24T07:07:36;0.60;;;0.57;;
5869;SDS011;2961;47.702;9.410;2023-04-24T07:10:05;1.23;;;0.90;;
5869;SDS011;2961;47.702;9.410;2023-04-24T07:12:33;1.90;;;0.93;;
5869;SDS011;2961;47.702;9.410;2023-04-24T07:15:00;1.30;;;0.60;;
5869;SDS011;2961;47.702;9.410;2023-04-24T07:17:27;1.83;;;0.90;;
5869;SDS011;2961;47.702;9.410;2023-04-24T07:19:54;0.97;;;0.80;;
5869;SDS011;2961;47.702;9.410;2023-04-24T07:22:21;0.73;;;0.73;;
5869;SDS011;2961;47.702;9.410;2023-04-24T07:24:49;2.13;;;1.17;;
5869;SDS011;2961;47.702;9.410;2023-04-24T07:27:16;1.13;;;0.80;;
5869;SDS011;2961;47.702;9.410;2023-04-24T07:29:42;1.10;;;1.10;;
5869;SDS011;2961;47.702;9.410;2023-04-24T07:32:09;1.80;;;0.87;;
5869;SDS011;2961;47.702;9.410;2023-04-24T07:34:36;1.33;;;1.03;;
5869;SDS011;2961;47.702;9.410;2023-04-24T07:37:03;1.57;;;1.13;;
5869;SDS011;2961;47.702;9.410;2023-04-24T07:39:30;0.80;;;0.80;;
5869;SDS011;2961;47.702;9.410;2023-04-24T07:41:58;1.33;;;1.10;;
5869;SDS011;2961;47.702;9.410;2023-04-24T07:44:26;1.20;;;1.20;;
5869;SDS011;2961;47.702;9.410;2023-04-24T07:46:53;1.47;;;1.20;;
5869;SDS011;2961;47.702;9.410;2023-04-24T07:49:20;1.40;;;1.30;;
5869;SDS011;2961;47.702;9.410;2023-04-24T07:51:46;1.03;;;1.00;;
5869;SDS011;2961;47.702;9.410;2023-04-24T07:54:13;4.37;;;1.20;;
5869;SDS011;2961;47.702;9.410;2023-04-24T07:56:40;3.03;;;1.50;;
5869;SDS011;2961;47.702;9.410;2023-04-24T07:59:09;1.30;;;1.20;;
5869;SDS011;2961;47.702;9.410;2023-04-24T08:01:36;1.73;;;1.10;;
5869;SDS011;2961;47.702;9.410;2023-04-24T08:04:03;4.20;;;1.20;;
5869;SDS011;2961;47.702;9.410;2023-04-24T08:06:30;2.13;;;1.97;;
5869;SDS011;2961;47.702;9.410;2023-04-24T08:08:57;2.03;;;2.00;;
5869;SDS011;2961;47.702;9.410;2023-04-24T08:11:25;2.87;;;2.37;;
5869;SDS011;2961;47.702;9.410;2023-04-24T08:13:52;5.93;;;2.97;;
5869;SDS011;2961;47.702;9.410;2023-04-24T08:16:21;4.10;;;3.47;;
5869;SDS011;2961;47.702;9.410;2023-04-24T08:18:48;9.33;;;4.97;;
5869;SDS011;2961;47.702;9.410;2023-04-24T08:21:15;4.60;;;3.73;;
5869;SDS011;2961;47.702;9.410;2023-04-24T08:23:43;4.67;;;2.13;;
5869;SDS011;2961;47.702;9.410;2023-04-24T08:26:10;2.93;;;2.60;;
5869;SDS011;2961;47.702;9.410;2023-04-24T08:28:37;4.43;;;2.73;;
5869;SDS011;2961;47.702;9.410;2023-04-24T08:31:04;2.17;;;2.07;;
5869;SDS011;2961;47.702;9.410;2023-04-24T08:33:32;3.87;;;3.50;;
5869;SDS011;2961;47.702;9.410;2023-04-24T08:36:00;3.60;;;3.17;;
5869;SDS011;2961;47.702;9.410;2023-04-24T08:38:27;3.07;;;2.80;;
5869;SDS011;2961;47.702;9.410;2023-04-24T08:40:54;6.20;;;2.50;;
5869;SDS011;2961;47.702;9.410;2023-04-24T08:43:22;2.30;;;1.90;;
5869;SDS011;2961;47.702;9.410;2023-04-24T08:45:49;1.27;;;1.20;;
5869;SDS011;2961;47.702;9.410;2023-04-24T08:48:16;1.50;;;1.40;;
5869;SDS011;2961;47.702;9.410;2023-04-24T08:50:45;1.13;;;0.93;;
5869;SDS011;2961;47.702;9.410;2023-04-24T08:53:14;2.30;;;1.50;;
5869;SDS011;2961;47.702;9.410;2023-04-24T08:55:41;2.20;;;2.00;;
5869;SDS011;2961;47.702;9.410;2023-04-24T08:58:12;1.30;;;1.30;;
5869;SDS011;2961;47.702;9.410;2023-04-24T09:00:40;1.20;;;1.20;;
5869;SDS011;2961;47.702;9.410;2023-04-24T09:03:11;7.30;;;1.60;;
5869;SDS011;2961;47.702;9.410;2023-04-24T09:05:39;1.30;;;1.27;;
5869;SDS011;2961;47.702;9.410;2023-04-24T09:08:12;1.63;;;1.53;;
5869;SDS011;2961;47.702;9.410;2023-04-24T09:10:39;1.70;;;1.60;;
5869;SDS011;2961;47.702;9.410;2023-04-24T09:13:07;1.43;;;1.33;;
5869;SDS011;2961;47.702;9.410;2023-04-24T09:15:35;2.37;;;1.80;;
5869;SDS011;2961;47.702;9.410;2023-04-24T09:18:02;1.10;;;1.03;;
5869;SDS011;2961;47.702;9.410;2023-04-24T09:20:29;3.10;;;1.17;;
5869;SDS011;2961;47.702;9.410;2023-04-24T09:22:56;1.30;;;1.13;;
5869;SDS011;2961;47.702;9.410;2023-04-24T09:25:26;2.07;;;1.17;;
5869;SDS011;2961;47.702;9.410;2023-04-24T09:28:06;0.70;;;0.70;;
5869;SDS011;2961;47.702;9.410;2023-04-24T09:30:33;1.17;;;1.00;;
5869;SDS011;2961;47.702;9.410;2023-04-24T09:33:09;2.10;;;1.27;;
5869;SDS011;2961;47.702;9.410;2023-04-24T09:35:39;1.13;;;1.00;;
5869;SDS011;2961;47.702;9.410;2023-04-24T09:38:07;2.37;;;1.10;;
5869;SDS011;2961;47.702;9.410;2023-04-24T09:40:35;2.73;;;0.90;;
5869;SDS011;2961;47.702;9.410;2023-04-24T09:43:02;1.70;;;1.20;;
5869;SDS011;2961;47.702;9.410;2023-04-24T09:45:28;1.30;;;0.90;;
5869;SDS011;2961;47.702;9.410;2023-04-24T09:48:02;2.03;;;1.30;;
5869;SDS011;2961;47.702;9.410;2023-04-24T09:50:30;1.33;;;1.23;;
5869;SDS011;2961;47.702;9.410;2023-04-24T09:53:01;1.30;;;1.20;;
5869;SDS011;2961;47.702;9.410;2023-04-24T09:55:29;4.50;;;2.43;;
5869;SDS011;2961;47.702;9.410;2023-04-24T09:57:58;1.90;;;1.03;;
5869;SDS011;2961;47.702;9.410;2023-04-24T10:00:30;0.93;;;0.93;;
5869;SDS011;2961;47.702;9.410;2023-04-24T10:02:58;1.40;;;1.30;;
5869;SDS011;2961;47.702;9.410;2023-04-24T10:05:27;1.10;;;1.00;;
5869;SDS011;2961;47.702;9.410;2023-04-24T10:07:59;2.50;;;1.30;;
5869;SDS011;2961;47.702;9.410;2023-04-24T10:10:27;3.17;;;1.00;;
5869;SDS011;2961;47.702;9.410;2023-04-24T10:12:55;2.00;;;1.67;;
5869;SDS011;2961;47.702;9.410;2023-04-24T10:15:23;1.40;;;1.30;;
5869;SDS011;2961;47.702;9.410;2023-04-24T10:17:51;4.00;;;1.87;;
5869;SDS011;2961;47.702;9.410;2023-04-24T10:20:19;6.10;;;1.57;;
5869;SDS011;2961;47.702;9.410;2023-04-24T10:22:47;1.57;;;1.40;;
5869;SDS011;2961;47.702;9.410;2023-04-24T10:25:16;1.57;;;1.50;;
5869;SDS011;2961;47.702;9.410;2023-04-24T10:27:44;2.97;;;1.53;;
5869;SDS011;2961;47.702;9.410;2023-04-24T10:30:13;2.97;;;1.20;;
5869;SDS011;2961;47.702;9.410;2023-04-24T10:32:41;1.90;;;1.30;;
5869;SDS011;2961;47.702;9.410;2023-04-24T10:35:08;5.00;;;1.17;;
5869;SDS011;2961;47.702;9.410;2023-04-24T10:37:36;8.70;;;1.53;;
5869;SDS011;2961;47.702;9.410;2023-04-24T10:40:05;1.27;;;1.17;;
5869;SDS011;2961;47.702;9.410;2023-04-24T10:42:34;1.47;;;0.97;;
5869;SDS011;2961;47.702;9.410;2023-04-24T10:45:04;1.57;;;1.33;;
5869;SDS011;2961;47.702;9.410;2023-04-24T10:47:39;1.67;;;1.40;;
5869;SDS011;2961;47.702;9.410;2023-04-24T10:50:09;1.40;;;1.30;;
5869;SDS011;2961;47.702;9.410;2023-04-24T10:52:45;1.00;;;1.00;;
5869;SDS011;2961;47.702;9.410;2023-04-24T10:55:13;1.20;;;1.10;;
5869;SDS011;2961;47.702;9.410;2023-04-24T10:57:40;2.57;;;1.23;;
5869;SDS011;2961;47.702;9.410;2023-04-24T11:00:27;1.80;;;1.10;;
5869;SDS011;2961;47.702;9.410;2023-04-24T11:02:54;2.00;;;1.27;;
5869;SDS011;2961;47.702;9.410;2023-04-24T11:05:48;2.70;;;1.27;;
5869;SDS011;2961;47.702;9.410;2023-04-24T11:08:22;1.23;;;1.13;;
5869;SDS011;2961;47.702;9.410;2023-04-24T11:10:54;3.00;;;1.67;;
5869;SDS011;2961;47.702;9.410;2023-04-24T11:13:25;1.83;;;1.07;;
5869;SDS011;2961;47.702;9.410;2023-04-24T11:16:13;1.17;;;1.03;;
5869;SDS011;2961;47.702;9.410;2023-04-24T11:18:49;2.83;;;1.20;;
5869;SDS011;2961;47.702;9.410;2023-04-24T11:21:21;3.47;;;1.37;;
5869;SDS011;2961;47.702;9.410;2023-04-24T11:23:48;4.03;;;1.30;;
5869;SDS011;2961;47.702;9.410;2023-04-24T11:26:17;1.40;;;1.40;;
5869;SDS011;2961;47.702;9.410;2023-04-24T11:28:45;1.93;;;1.20;;
5869;SDS011;2961;47.702;9.410;2023-04-24T11:34:06;1.30;;;1.20;;
5869;SDS011;2961;47.702;9.410;2023-04-24T11:36:36;1.30;;;1.20;;
5869;SDS011;2961;47.702;9.410;2023-04-24T11:39:03;1.17;;;1.10;;
5869;SDS011;2961;47.702;9.410;2023-04-24T11:41:30;1.20;;;1.10;;
5869;SDS011;2961;47.702;9.410;2023-04-24T11:43:57;7.27;;;1.23;;
5869;SDS011;2961;47.702;9.410;2023-04-24T11:46:27;1.90;;;1.80;;
5869;SDS011;2961;47.702;9.410;2023-04-24T11:48:55;1.37;;;1.27;;
5869;SDS011;2961;47.702;9.410;2023-04-24T11:51:22;1.10;;;1.10;;
5869;SDS011;2961;47.702;9.410;2023-04-24T11:53:51;1.57;;;0.80;;
5869;SDS011;2961;47.702;9.410;2023-04-24T11:56:18;1.50;;;1.40;;
5869;SDS011;2961;47.702;9.410;2023-04-24T11:58:47;1.37;;;0.90;;
5869;SDS011;2961;47.702;9.410;2023-04-24T12:01:14;3.03;;;1.07;;
5869;SDS011;2961;47.702;9.410;2023-04-24T12:03:41;5.70;;;1.90;;
5869;SDS011;2961;47.702;9.410;2023-04-24T12:06:11;1.83;;;1.17;;
5869;SDS011;2961;47.702;9.410;2023-04-24T12:08:38;3.70;;;1.50;;
5869;SDS011;2961;47.702;9.410;2023-04-24T12:11:07;1.43;;;1.33;;
5869;SDS011;2961;47.702;9.410;2023-04-24T12:13:34;2.40;;;1.40;;
5869;SDS011;2961;47.702;9.410;2023-04-24T12:16:02;2.78;;;1.30;;
5869;SDS011;2961;47.702;9.410;2023-04-24T12:18:29;1.70;;;1.60;;
5869;SDS011;2961;47.702;9.410;2023-04-24T12:23:42;2.83;;;1.53;;
5869;SDS011;2961;47.702;9.410;2023-04-24T12:26:10;2.10;;;1.27;;
5869;SDS011;2961;47.702;9.410;2023-04-24T12:28:38;2.03;;;1.10;;
5869;SDS011;2961;47.702;9.410;2023-04-24T12:31:05;3.30;;;1.33;;
5869;SDS011;2961;47.702;9.410;2023-04-24T12:33:33;1.80;;;1.10;;
5869;SDS011;2961;47.702;9.410;2023-04-24T12:36:00;2.83;;;1.67;;
5869;SDS011;2961;47.702;9.410;2023-04-24T12:38:28;5.13;;;2.37;;
5869;SDS011;2961;47.702;9.410;2023-04-24T12:41:33;1.60;;;1.30;;
5869;SDS011;2961;47.702;9.410;2023-04-24T12:44:00;1.43;;;1.13;;
5869;SDS011;2961;47.702;9.410;2023-04-24T12:46:27;1.30;;;1.20;;
5869;SDS011;2961;47.702;9.410;2023-04-24T12:48:54;1.60;;;1.50;;
5869;SDS011;2961;47.702;9.410;2023-04-24T12:51:20;3.10;;;1.40;;
5869;SDS011;2961;47.702;9.410;2023-04-24T12:53:48;6.23;;;1.23;;
5869;SDS011;2961;47.702;9.410;2023-04-24T12:56:15;2.53;;;1.40;;
5869;SDS011;2961;47.702;9.410;2023-04-24T12:58:43;4.43;;;1.50;;
5869;SDS011;2961;47.702;9.410;2023-04-24T13:01:10;1.63;;;1.40;;
5869;SDS011;2961;47.702;9.410;2023-04-24T13:03:37;3.40;;;1.20;;
5869;SDS011;2961;47.702;9.410;2023-04-24T13:06:04;2.40;;;1.40;;
5869;SDS011;2961;47.702;9.410;2023-04-24T13:08:30;1.40;;;0.90;;
5869;SDS011;2961;47.702;9.410;2023-04-24T13:10:57;1.10;;;1.10;;
5869;SDS011;2961;47.702;9.410;2023-04-24T13:13:24;0.97;;;0.90;;
5869;SDS011;2961;47.702;9.410;2023-04-24T13:15:52;2.58;;;1.20;;
5869;SDS011;2961;47.702;9.410;2023-04-24T13:18:19;1.30;;;1.30;;
5869;SDS011;2961;47.702;9.410;2023-04-24T13:20:45;2.63;;;1.00;;
5869;SDS011;2961;47.702;9.410;2023-04-24T13:23:12;1.70;;;0.93;;
5869;SDS011;2961;47.702;9.410;2023-04-24T13:25:39;2.10;;;1.23;;
5869;SDS011;2961;47.702;9.410;2023-04-24T13:28:07;1.80;;;1.10;;
5869;SDS011;2961;47.702;9.410;2023-04-24T13:30:34;1.20;;;1.20;;
5869;SDS011;2961;47.702;9.410;2023-04-24T13:33:02;1.17;;;1.17;;
5869;SDS011;2961;47.702;9.410;2023-04-24T13:35:32;3.30;;;1.13;;
5869;SDS011;2961;47.702;9.410;2023-04-24T13:37:58;1.97;;;1.20;;
5869;SDS011;2961;47.702;9.410;2023-04-24T13:40:26;2.70;;;1.23;;
5869;SDS011;2961;47.702;9.410;2023-04-24T13:42:53;1.80;;;1.10;;
5869;SDS011;2961;47.702;9.410;2023-04-24T13:45:20;1.40;;;1.13;;
5869;SDS011;2961;47.702;9.410;2023-04-24T13:47:47;4.13;;;1.40;;
5869;SDS011;2961;47.702;9.410;2023-04-24T13:50:15;1.43;;;1.17;;
5869;SDS011;2961;47.702;9.410;2023-04-24T13:52:41;1.27;;;1.23;;
5869;SDS011;2961;47.702;9.410;2023-04-24T13:55:08;3.53;;;1.33;;
5869;SDS011;2961;47.702;9.410;2023-04-24T13:57:35;1.37;;;1.27;;
5869;SDS011;2961;47.702;9.410;2023-04-24T14:00:02;1.93;;;1.13;;
5869;SDS011;2961;47.702;9.410;2023-04-24T14:02:30;1.43;;;1.33;;
5869;SDS011;2961;47.702;9.410;2023-04-24T14:04:57;2.90;;;0.93;;
5869;SDS011;2961;47.702;9.410;2023-04-24T14:07:25;1.83;;;1.30;;
5869;SDS011;2961;47.702;9.410;2023-04-24T14:09:52;1.50;;;1.37;;
5869;SDS011;2961;47.702;9.410;2023-04-24T14:12:19;2.20;;;1.00;;
5869;SDS011;2961;47.702;9.410;2023-04-24T14:14:46;0.73;;;0.70;;
5869;SDS011;2961;47.702;9.410;2023-04-24T14:17:13;5.27;;;1.17;;
5869;SDS011;2961;47.702;9.410;2023-04-24T14:19:40;2.70;;;1.20;;
5869;SDS011;2961;47.702;9.410;2023-04-24T14:22:07;1.10;;;1.10;;
5869;SDS011;2961;47.702;9.410;2023-04-24T14:24:35;2.07;;;1.47;;
5869;SDS011;2961;47.702;9.410;2023-04-24T14:27:02;1.47;;;1.10;;
5869;SDS011;2961;47.702;9.410;2023-04-24T14:29:28;1.40;;;1.30;;
5869;SDS011;2961;47.702;9.410;2023-04-24T14:31:55;3.37;;;1.70;;
5869;SDS011;2961;47.702;9.410;2023-04-24T14:34:22;7.73;;;2.23;;
5869;SDS011;2961;47.702;9.410;2023-04-24T14:36:49;3.60;;;1.63;;
5869;SDS011;2961;47.702;9.410;2023-04-24T14:39:15;3.17;;;2.07;;
5869;SDS011;2961;47.702;9.410;2023-04-24T14:41:43;2.07;;;1.97;;
5869;SDS011;2961;47.702;9.410;2023-04-24T14:44:10;1.67;;;1.57;;
5869;SDS011;2961;47.702;9.410;2023-04-24T14:46:37;1.20;;;1.20;;
5869;SDS011;2961;47.702;9.410;2023-04-24T14:49:04;2.00;;;1.40;;
5869;SDS011;2961;47.702;9.410;2023-04-24T14:51:34;4.27;;;1.17;;
5869;SDS011;2961;47.702;9.410;2023-04-24T14:54:01;1.37;;;1.20;;
5869;SDS011;2961;47.702;9.410;2023-04-24T14:56:28;1.30;;;1.20;;
5869;SDS011;2961;47.702;9.410;2023-04-24T14:58:56;4.93;;;1.27;;
5869;SDS011;2961;47.702;9.410;2023-04-24T15:01:23;1.90;;;1.70;;
5869;SDS011;2961;47.702;9.410;2023-04-24T15:03:50;3.07;;;1.10;;
5869;SDS011;2961;47.702;9.410;2023-04-24T15:06:16;4.33;;;1.33;;
5869;SDS011;2961;47.702;9.410;2023-04-24T15:08:43;2.63;;;1.07;;
5869;SDS011;2961;47.702;9.410;2023-04-24T15:11:10;0.80;;;0.80;;
5869;SDS011;2961;47.702;9.410;2023-04-24T15:13:43;4.33;;;1.33;;
5869;SDS011;2961;47.702;9.410;2023-04-24T15:16:12;3.57;;;0.83;;
5869;SDS011;2961;47.702;9.410;2023-04-24T15:18:39;5.10;;;4.60;;
5869;SDS011;2961;47.702;9.410;2023-04-24T15:21:05;8.17;;;7.17;;
5869;SDS011;2961;47.702;9.410;2023-04-24T15:23:32;13.93;;;8.83;;